Time;durP1;ratioP1;P1;durP2;ratioP2;P2;SDS_P1;SDS_P2;PMS_P1;PMS_P2;Temp;Humidity;BMP_temperature;BMP_pressure;BME280_temperature;BME280_humidity;BME280_pressure;Samples;Min_cycle;Max_cycle;Signal;HPM_P1;HPM_P2
2023/08/15 04:29:55;;;;;;;3.90;3.38;;;;;;;;;;5062375;28;20216;-32
2023/08/15 04:35:55;;;;;;;4.15;3.50;;;;;;;;;;5051667;28;20205;-33
2023/08/15 04:59:58;;;;;;;5.32;3.88;;;;;;;;;;6145715;23;20187;-31
2023/08/15 05:02:25;;;;;;;3.80;3.50;;;;;;;;;;6156489;23;20169;-32
2023/08/15 05:04:52;;;;;;;4.13;3.40;;;;;;;;;;6157263;23;20266;-31
2023/08/15 05:07:20;;;;;;;4.57;4.17;;;;;;;;;;6155094;23;20266;-32
2023/08/15 05:09:47;;;;;;;3.95;3.60;;;;;;;;;;6156281;23;20255;-32
2023/08/15 05:12:14;;;;;;;4.38;3.97;;;;;;;;;;6156596;23;20241;-33
2023/08/15 05:14:41;;;;;;;4.60;3.50;;;;;;;;;;6155704;23;20185;-28
2023/08/15 05:17:10;;;;;;;6.38;4.00;;;;;;;;;;6155902;23;20183;-33
2023/08/15 05:19:38;;;;;;;4.55;3.33;;;;;;;;;;6158183;23;20203;-32
2023/08/15 05:22:05;;;;;;;4.70;3.80;;;;;;;;;;6154695;23;20167;-32
2023/08/15 05:24:32;;;;;;;4.43;3.70;;;;;;;;;;6155851;23;20179;-29
2023/08/15 05:26:59;;;;;;;4.33;3.97;;;;;;;;;;6155768;23;20187;-33
2023/08/15 05:29:26;;;;;;;4.97;3.70;;;;;;;;;;6155595;23;20237;-30
2023/08/15 05:31:53;;;;;;;6.28;4.13;;;;;;;;;;6156680;23;20554;-30
2023/08/15 05:34:22;;;;;;;3.90;3.43;;;;;;;;;;6156832;23;20178;-29
2023/08/15 05:36:49;;;;;;;4.57;4.07;;;;;;;;;;6156113;23;20266;-32
2023/08/15 05:39:16;;;;;;;4.53;4.13;;;;;;;;;;6154370;23;20314;-31
2023/08/15 05:41:43;;;;;;;4.65;4.00;;;;;;;;;;6156241;23;20277;-34
2023/08/15 05:44:10;;;;;;;4.07;3.50;;;;;;;;;;6154098;23;20266;-31
2023/08/15 05:46:37;;;;;;;5.50;4.10;;;;;;;;;;6156048;23;20184;-29
2023/08/15 05:49:04;;;;;;;6.93;4.28;;;;;;;;;;6156430;23;20278;-28
2023/08/15 05:51:33;;;;;;;4.60;4.10;;;;;;;;;;6153876;23;20207;-34
2023/08/15 05:54:00;;;;;;;4.97;4.47;;;;;;;;;;6151335;23;20189;-29
2023/08/15 05:56:27;;;;;;;6.60;3.92;;;;;;;;;;6149531;23;20263;-32
2023/08/15 05:58:54;;;;;;;6.47;4.53;;;;;;;;;;6147779;23;20211;-29
2023/08/15 06:01:22;;;;;;;6.32;4.55;;;;;;;;;;6149023;23;20203;-32
2023/08/15 06:03:49;;;;;;;5.22;4.82;;;;;;;;;;6150200;23;20188;-29
2023/08/15 06:06:17;;;;;;;6.43;4.32;;;;;;;;;;6149347;23;20218;-31
2023/08/15 06:08:45;;;;;;;6.82;5.03;;;;;;;;;;6149201;23;20270;-31
2023/08/15 06:11:12;;;;;;;5.30;4.80;;;;;;;;;;6148846;23;20176;-31
2023/08/15 06:13:39;;;;;;;5.07;4.40;;;;;;;;;;6148772;23;20198;-30
2023/08/15 06:16:06;;;;;;;4.80;4.40;;;;;;;;;;6148940;23;20189;-32
2023/08/15 06:18:34;;;;;;;5.53;5.00;;;;;;;;;;6148908;23;20189;-33
2023/08/15 06:21:01;;;;;;;4.63;4.20;;;;;;;;;;6148285;23;20283;-33
2023/08/15 06:23:28;;;;;;;4.97;4.57;;;;;;;;;;6149164;23;20190;-29
2023/08/15 06:25:57;;;;;;;6.88;4.90;;;;;;;;;;6148741;23;20174;-30
2023/08/15 06:28:24;;;;;;;5.85;4.97;;;;;;;;;;6147287;23;20214;-29
2023/08/15 06:30:51;;;;;;;6.47;4.93;;;;;;;;;;6149145;23;20719;-31
2023/08/15 06:33:18;;;;;;;4.60;4.18;;;;;;;;;;6148999;23;20171;-31
2023/08/15 06:35:45;;;;;;;6.60;5.15;;;;;;;;;;6149576;23;20185;-33
2023/08/15 06:38:12;;;;;;;5.93;4.75;;;;;;;;;;6147183;23;20175;-32
2023/08/15 06:40:40;;;;;;;4.85;4.45;;;;;;;;;;6148590;23;20234;-31
2023/08/15 06:43:08;;;;;;;5.55;4.85;;;;;;;;;;6148855;23;20186;-28
2023/08/15 06:45:35;;;;;;;11.07;4.90;;;;;;;;;;6149019;23;20243;-31
2023/08/15 06:48:05;;;;;;;5.50;4.65;;;;;;;;;;6148730;23;20183;-33
2023/08/15 06:50:32;;;;;;;9.20;4.90;;;;;;;;;;6149142;23;20230;-30
2023/08/15 06:52:59;;;;;;;5.32;4.88;;;;;;;;;;6147016;23;20225;-33
2023/08/15 06:55:26;;;;;;;5.80;5.30;;;;;;;;;;6148685;23;20190;-34
2023/08/15 06:57:54;;;;;;;7.65;4.80;;;;;;;;;;6146918;23;20198;-32
2023/08/15 07:00:23;;;;;;;6.25;4.88;;;;;;;;;;6148657;23;20207;-32
2023/08/15 07:02:50;;;;;;;5.65;5.15;;;;;;;;;;6149128;23;20194;-33
2023/08/15 07:05:17;;;;;;;7.68;5.47;;;;;;;;;;6147733;23;20711;-33
2023/08/15 07:07:44;;;;;;;7.20;5.32;;;;;;;;;;6149217;23;20258;-28
2023/08/15 07:10:12;;;;;;;7.95;5.18;;;;;;;;;;6148949;23;20212;-28
2023/08/15 07:12:39;;;;;;;5.07;4.57;;;;;;;;;;6147912;23;20560;-31
2023/08/15 07:15:07;;;;;;;6.15;4.78;;;;;;;;;;6149444;23;20199;-29
2023/08/15 07:17:35;;;;;;;5.72;5.07;;;;;;;;;;6148516;23;20180;-34
2023/08/15 07:20:04;;;;;;;6.90;4.57;;;;;;;;;;6150693;23;20307;-29
2023/08/15 07:22:31;;;;;;;9.45;4.90;;;;;;;;;;6149342;23;20271;-30
2023/08/15 07:24:58;;;;;;;7.68;5.00;;;;;;;;;;6149237;23;20264;-31
2023/08/15 07:27:26;;;;;;;5.68;5.18;;;;;;;;;;6147926;23;20569;-32
2023/08/15 07:29:53;;;;;;;8.95;5.40;;;;;;;;;;6148011;23;20208;-32
2023/08/15 07:32:20;;;;;;;5.53;4.80;;;;;;;;;;6149104;23;20494;-30
2023/08/15 07:34:48;;;;;;;5.05;4.63;;;;;;;;;;6149124;23;20279;-32
2023/08/15 07:37:16;;;;;;;5.97;5.18;;;;;;;;;;6147853;23;20174;-33
2023/08/15 07:39:43;;;;;;;6.95;5.00;;;;;;;;;;6148603;23;20261;-29
2023/08/15 07:42:11;;;;;;;5.78;4.97;;;;;;;;;;6149536;23;20205;-30
2023/08/15 07:44:38;;;;;;;4.60;4.20;;;;;;;;;;6151639;23;20183;-31
2023/08/15 07:47:05;;;;;;;5.78;5.05;;;;;;;;;;6150704;23;20191;-31
2023/08/15 07:49:32;;;;;;;7.05;4.95;;;;;;;;;;6150276;23;20204;-28
2023/08/15 07:52:01;;;;;;;7.25;4.32;;;;;;;;;;6148915;23;20183;-30
2023/08/15 07:54:28;;;;;;;5.50;4.97;;;;;;;;;;6150730;23;20273;-32
2023/08/15 07:56:55;;;;;;;7.88;4.50;;;;;;;;;;6148195;23;20311;-32
2023/08/15 07:59:23;;;;;;;6.35;4.22;;;;;;;;;;6146933;23;20208;-28
2023/08/15 08:01:51;;;;;;;6.43;4.75;;;;;;;;;;6148992;23;20606;-28
2023/08/15 08:04:19;;;;;;;6.20;5.60;;;;;;;;;;6149637;23;20179;-32
2023/08/15 08:06:46;;;;;;;8.10;5.05;;;;;;;;;;6150312;23;20223;-32
2023/08/15 08:09:14;;;;;;;6.50;5.40;;;;;;;;;;6150568;23;20601;-32
2023/08/15 08:11:41;;;;;;;7.50;5.60;;;;;;;;;;6144919;23;20543;-30
2023/08/15 08:14:09;;;;;;;5.57;4.72;;;;;;;;;;6144746;23;20273;-31
2023/08/15 08:16:36;;;;;;;5.45;4.93;;;;;;;;;;6146764;23;20277;-32
2023/08/15 08:19:03;;;;;;;8.50;4.78;;;;;;;;;;6146106;23;20193;-33
2023/08/15 08:21:30;;;;;;;5.10;4.65;;;;;;;;;;6149642;23;20256;-30
2023/08/15 08:23:57;;;;;;;6.32;5.30;;;;;;;;;;6150989;23;20265;-30
2023/08/15 08:26:26;;;;;;;6.93;4.82;;;;;;;;;;6149290;23;20180;-32
2023/08/15 08:28:53;;;;;;;7.32;5.22;;;;;;;;;;6145927;23;20195;-34
2023/08/15 08:31:20;;;;;;;5.10;4.43;;;;;;;;;;6151369;23;20180;-27
2023/08/15 08:33:47;;;;;;;6.65;5.15;;;;;;;;;;6148694;23;20246;-32
2023/08/15 08:36:14;;;;;;;5.45;4.90;;;;;;;;;;6147088;23;20185;-32
2023/08/15 08:38:42;;;;;;;8.32;5.20;;;;;;;;;;6150782;23;20211;-30
2023/08/15 08:41:09;;;;;;;6.03;5.43;;;;;;;;;;6151522;23;20206;-30
2023/08/15 08:43:38;;;;;;;5.75;5.05;;;;;;;;;;6151158;23;20557;-31
2023/08/15 08:46:05;;;;;;;6.28;5.10;;;;;;;;;;6146370;23;20179;-33
2023/08/15 08:48:33;;;;;;;6.03;5.28;;;;;;;;;;6147792;23;20272;-30
2023/08/15 08:51:01;;;;;;;7.57;5.00;;;;;;;;;;6147680;23;20261;-32
2023/08/15 08:53:28;;;;;;;5.97;4.63;;;;;;;;;;6147415;23;20223;-30
2023/08/15 08:55:55;;;;;;;6.35;4.88;;;;;;;;;;6146522;23;20189;-33
2023/08/15 08:58:24;;;;;;;6.18;5.10;;;;;;;;;;6144440;23;20225;-32
2023/08/15 09:00:52;;;;;;;5.72;4.93;;;;;;;;;;6146505;23;20510;-30
2023/08/15 09:03:20;;;;;;;5.90;5.38;;;;;;;;;;6147426;23;20186;-30
2023/08/15 09:05:47;;;;;;;5.55;5.05;;;;;;;;;;6145604;23;20565;-29
2023/08/15 09:08:14;;;;;;;5.70;5.18;;;;;;;;;;6145695;23;20198;-27
2023/08/15 09:10:42;;;;;;;5.82;5.15;;;;;;;;;;6147316;23;20237;-33
2023/08/15 09:13:09;;;;;;;5.85;5.30;;;;;;;;;;6145328;23;20169;-30
2023/08/15 09:15:36;;;;;;;7.70;5.13;;;;;;;;;;6146603;23;20188;-29
2023/08/15 09:18:06;;;;;;;5.97;5.38;;;;;;;;;;6146449;23;20724;-30
2023/08/15 09:20:34;;;;;;;6.50;5.90;;;;;;;;;;6146685;23;20749;-30
2023/08/15 09:23:20;;;;;;;6.85;5.32;;;;;;;;;;6149032;23;20208;-29
2023/08/15 09:25:48;;;;;;;5.72;5.20;;;;;;;;;;6150369;23;20169;-32
2023/08/15 09:28:16;;;;;;;8.05;5.03;;;;;;;;;;6151337;23;20189;-30
2023/08/15 09:30:51;;;;;;;5.53;5.10;;;;;;;;;;6151392;23;20201;-32
2023/08/15 09:33:20;;;;;;;9.50;5.60;;;;;;;;;;6149476;23;20188;-33
2023/08/15 09:35:47;;;;;;;8.77;5.82;;;;;;;;;;6148566;23;20464;-28
2023/08/15 09:38:15;;;;;;;7.22;5.43;;;;;;;;;;6145798;23;20201;-30
2023/08/15 09:40:44;;;;;;;5.70;5.20;;;;;;;;;;6149091;23;20209;-31
2023/08/15 09:43:16;;;;;;;7.75;5.32;;;;;;;;;;6147191;23;20192;-35
2023/08/15 09:45:43;;;;;;;6.82;5.32;;;;;;;;;;6148511;23;20198;-30
2023/08/15 09:48:11;;;;;;;8.25;5.15;;;;;;;;;;6148653;23;20260;-32
2023/08/15 09:50:42;;;;;;;6.72;5.38;;;;;;;;;;6150275;23;20207;-28
2023/08/15 09:53:10;;;;;;;5.90;5.25;;;;;;;;;;6147960;23;20172;-30
2023/08/15 09:55:38;;;;;;;5.55;4.78;;;;;;;;;;6148918;23;20282;-33
2023/08/15 09:58:05;;;;;;;8.50;5.03;;;;;;;;;;6147312;23;20621;-32
2023/08/15 10:00:32;;;;;;;5.82;5.30;;;;;;;;;;6148754;23;20210;-32
2023/08/15 10:03:01;;;;;;;5.43;4.93;;;;;;;;;;6149857;23;20201;-28
2023/08/15 10:05:31;;;;;;;6.60;4.45;;;;;;;;;;6151595;23;20249;-27
2023/08/15 10:08:00;;;;;;;4.45;3.83;;;;;;;;;;6150633;23;20242;-31
2023/08/15 10:10:28;;;;;;;7.13;3.70;;;;;;;;;;6150907;23;20680;-29
2023/08/15 10:12:55;;;;;;;5.13;3.58;;;;;;;;;;6149909;23;20198;-33
2023/08/15 10:15:23;;;;;;;3.22;2.42;;;;;;;;;;6150726;23;20265;-29
2023/08/15 10:17:51;;;;;;;4.20;3.10;;;;;;;;;;6150969;23;20512;-32
2023/08/15 10:20:19;;;;;;;10.73;6.82;;;;;;;;;;6150093;23;20240;-29
2023/08/15 10:23:00;;;;;;;8.05;6.45;;;;;;;;;;6153421;23;20209;-32
2023/08/15 10:25:35;;;;;;;10.68;5.78;;;;;;;;;;6153420;23;20249;-33
2023/08/15 10:28:06;;;;;;;6.53;2.92;;;;;;;;;;6151481;23;20186;-30
2023/08/15 10:30:35;;;;;;;5.00;2.90;;;;;;;;;;6148685;23;20289;-31
2023/08/15 10:33:13;;;;;;;2.97;2.67;;;;;;;;;;6148229;23;20409;-32
2023/08/15 10:35:43;;;;;;;3.38;3.03;;;;;;;;;;6146684;23;20188;-29
2023/08/15 10:38:16;;;;;;;6.57;2.42;;;;;;;;;;6146469;23;20254;-30
2023/08/15 10:40:45;;;;;;;4.63;2.83;;;;;;;;;;6152660;23;20199;-33
2023/08/15 10:43:12;;;;;;;2.97;2.55;;;;;;;;;;6148243;23;20526;-31
2023/08/15 10:45:43;;;;;;;4.95;2.72;;;;;;;;;;6147902;23;20732;-33
2023/08/15 10:48:11;;;;;;;4.25;2.80;;;;;;;;;;6146923;23;20717;-34
2023/08/15 10:50:43;;;;;;;4.05;2.60;;;;;;;;;;6147427;23;20203;-34
2023/08/15 10:53:10;;;;;;;6.22;2.55;;;;;;;;;;6145985;23;20239;-33
2023/08/15 10:55:39;;;;;;;3.90;2.65;;;;;;;;;;6147910;23;20167;-30
2023/08/15 10:58:08;;;;;;;2.60;2.40;;;;;;;;;;6144614;23;20240;-30
2023/08/15 11:00:36;;;;;;;6.13;2.45;;;;;;;;;;6147054;23;20298;-32
2023/08/15 11:03:02;;;;;;;4.35;2.10;;;;;;;;;;6148364;23;20205;-31
2023/08/15 11:05:30;;;;;;;4.65;2.58;;;;;;;;;;6147861;23;20638;-34
2023/08/15 11:08:10;;;;;;;4.85;2.45;;;;;;;;;;6145434;23;20528;-31
2023/08/15 11:10:43;;;;;;;3.15;2.40;;;;;;;;;;6148263;23;20286;-30
2023/08/15 11:13:10;;;;;;;3.63;2.20;;;;;;;;;;6147244;23;20167;-29
2023/08/15 11:15:37;;;;;;;3.55;2.42;;;;;;;;;;6147338;23;20187;-33
2023/08/15 11:18:05;;;;;;;6.55;2.67;;;;;;;;;;6147455;23;20266;-30
2023/08/15 11:20:32;;;;;;;2.50;2.30;;;;;;;;;;6147677;23;20690;-32
2023/08/15 11:22:59;;;;;;;3.67;2.55;;;;;;;;;;6146603;23;20622;-31
2023/08/15 11:25:27;;;;;;;2.95;2.47;;;;;;;;;;6147118;23;20538;-33
2023/08/15 11:27:55;;;;;;;2.40;2.00;;;;;;;;;;6144323;23;20238;-32
2023/08/15 11:30:23;;;;;;;2.67;2.47;;;;;;;;;;6147676;23;20314;-32
2023/08/15 11:32:50;;;;;;;3.65;2.42;;;;;;;;;;6147365;23;20453;-30
2023/08/15 11:35:18;;;;;;;3.30;2.28;;;;;;;;;;6147703;23;20183;-35
2023/08/15 11:37:45;;;;;;;4.00;2.15;;;;;;;;;;6146515;23;20454;-29
2023/08/15 11:40:12;;;;;;;3.45;1.92;;;;;;;;;;6147084;23;20685;-29
2023/08/15 11:42:40;;;;;;;4.35;2.08;;;;;;;;;;6145881;23;20725;-35
2023/08/15 11:45:12;;;;;;;4.20;2.25;;;;;;;;;;6149427;23;20206;-32
2023/08/15 11:47:52;;;;;;;3.45;2.00;;;;;;;;;;6149471;23;20184;-31
2023/08/15 11:50:20;;;;;;;2.25;2.00;;;;;;;;;;6149617;23;20234;-31
2023/08/15 11:52:47;;;;;;;2.95;2.05;;;;;;;;;;6148007;23;20183;-32
2023/08/15 11:55:14;;;;;;;7.75;1.90;;;;;;;;;;6146950;23;20182;-33
2023/08/15 11:57:44;;;;;;;3.33;2.10;;;;;;;;;;6146629;23;20190;-32
2023/08/15 12:00:16;;;;;;;2.60;1.65;;;;;;;;;;6148483;23;20209;-30
2023/08/15 12:02:55;;;;;;;2.60;1.38;;;;;;;;;;6144387;23;20191;-30
2023/08/15 12:05:33;;;;;;;3.95;1.90;;;;;;;;;;6153210;23;20195;-28
2023/08/15 12:08:00;;;;;;;3.03;1.60;;;;;;;;;;6152469;23;20472;-31
2023/08/15 12:10:43;;;;;;;3.33;2.00;;;;;;;;;;6148571;23;20195;-34
2023/08/15 12:13:11;;;;;;;3.10;1.98;;;;;;;;;;6148529;23;20195;-28
2023/08/15 12:15:40;;;;;;;2.38;1.70;;;;;;;;;;6149366;23;20164;-32
2023/08/15 12:18:07;;;;;;;3.08;2.13;;;;;;;;;;6149120;23;20674;-27
2023/08/15 12:20:34;;;;;;;2.92;1.65;;;;;;;;;;6148052;23;20290;-29
2023/08/15 12:23:01;;;;;;;3.00;1.98;;;;;;;;;;6144596;23;20210;-27
2023/08/15 12:25:28;;;;;;;4.43;2.22;;;;;;;;;;6147792;23;20183;-32
2023/08/15 12:27:55;;;;;;;2.45;2.00;;;;;;;;;;6144889;23;20648;-30
2023/08/15 12:30:22;;;;;;;2.78;1.83;;;;;;;;;;6146528;23;20203;-30
2023/08/15 12:32:51;;;;;;;5.47;1.83;;;;;;;;;;6148015;23;20175;-29
2023/08/15 12:35:18;;;;;;;3.70;1.80;;;;;;;;;;6147317;23;20206;-30
2023/08/15 12:37:45;;;;;;;1.98;1.70;;;;;;;;;;6145380;23;20708;-30
2023/08/15 12:40:13;;;;;;;2.92;2.00;;;;;;;;;;6148310;23;20199;-28
2023/08/15 12:42:40;;;;;;;2.72;1.80;;;;;;;;;;6146319;23;20728;-35
2023/08/15 12:45:09;;;;;;;2.80;2.13;;;;;;;;;;6151514;23;20183;-33
2023/08/15 12:47:36;;;;;;;2.00;1.85;;;;;;;;;;6151936;23;20220;-32
2023/08/15 12:50:05;;;;;;;2.20;2.00;;;;;;;;;;6152540;23;20230;-29
2023/08/15 12:52:32;;;;;;;2.17;1.92;;;;;;;;;;6151110;23;20566;-30
2023/08/15 12:54:59;;;;;;;2.80;1.98;;;;;;;;;;6152696;23;20186;-32
2023/08/15 12:57:27;;;;;;;1.83;1.67;;;;;;;;;;6149414;23;20179;-29
2023/08/15 12:59:54;;;;;;;3.30;1.88;;;;;;;;;;6151617;23;20246;-29
2023/08/15 13:02:22;;;;;;;4.55;2.15;;;;;;;;;;6153014;23;20183;-27
2023/08/15 13:04:49;;;;;;;2.33;2.03;;;;;;;;;;6154433;23;20235;-30
2023/08/15 13:07:18;;;;;;;2.47;1.60;;;;;;;;;;6152513;23;20538;-30
2023/08/15 13:09:45;;;;;;;4.43;2.08;;;;;;;;;;6153707;23;20205;-30
2023/08/15 13:12:12;;;;;;;2.95;1.90;;;;;;;;;;6154129;23;20185;-29
2023/08/15 13:14:39;;;;;;;4.00;2.00;;;;;;;;;;6152508;23;20238;-29
2023/08/15 13:17:06;;;;;;;2.25;2.00;;;;;;;;;;6153241;23;20261;-27
2023/08/15 13:19:34;;;;;;;3.20;1.90;;;;;;;;;;6154304;23;20277;-32
2023/08/15 13:22:01;;;;;;;3.15;1.92;;;;;;;;;;6152352;23;20183;-32
2023/08/15 13:24:30;;;;;;;2.63;2.17;;;;;;;;;;6154134;23;20243;-30
2023/08/15 13:26:57;;;;;;;3.00;2.38;;;;;;;;;;6153287;23;20801;-31
2023/08/15 13:29:24;;;;;;;3.50;2.50;;;;;;;;;;6152319;23;20207;-31
2023/08/15 13:31:51;;;;;;;3.38;2.67;;;;;;;;;;6154003;23;20496;-32
2023/08/15 13:34:21;;;;;;;7.55;2.88;;;;;;;;;;6153701;23;20234;-29
2023/08/15 13:36:49;;;;;;;4.35;2.80;;;;;;;;;;6152713;23;20183;-28
2023/08/15 13:39:16;;;;;;;5.30;3.53;;;;;;;;;;6153579;23;20209;-30
2023/08/15 13:41:44;;;;;;;5.13;3.28;;;;;;;;;;6154823;23;20215;-32
2023/08/15 13:44:11;;;;;;;3.75;2.72;;;;;;;;;;6152509;23;20201;-31
2023/08/15 13:46:38;;;;;;;5.80;3.38;;;;;;;;;;6153943;23;20630;-31
2023/08/15 13:49:06;;;;;;;3.55;3.05;;;;;;;;;;6155255;23;20205;-28
2023/08/15 13:51:34;;;;;;;7.10;3.28;;;;;;;;;;6154857;23;20505;-31
2023/08/15 13:54:04;;;;;;;6.78;3.50;;;;;;;;;;6153076;23;20175;-31
2023/08/15 13:56:32;;;;;;;4.60;3.08;;;;;;;;;;6154923;23;20172;-27
2023/08/15 13:59:00;;;;;;;5.90;3.63;;;;;;;;;;6151377;23;20681;-29
2023/08/15 14:01:28;;;;;;;4.80;3.55;;;;;;;;;;6153234;23;20179;-29
2023/08/15 14:03:55;;;;;;;5.80;3.38;;;;;;;;;;6154013;23;20281;-32
2023/08/15 14:06:22;;;;;;;5.05;3.85;;;;;;;;;;6150089;23;20184;-28
2023/08/15 14:08:49;;;;;;;4.32;3.70;;;;;;;;;;6153177;23;20281;-33
2023/08/15 14:11:16;;;;;;;6.50;4.07;;;;;;;;;;6153663;23;20189;-30
2023/08/15 14:13:45;;;;;;;4.60;4.00;;;;;;;;;;6151483;23;20514;-28
2023/08/15 14:16:14;;;;;;;8.35;3.50;;;;;;;;;;6152511;23;20163;-30
2023/08/15 14:18:41;;;;;;;8.20;3.42;;;;;;;;;;6153107;23;20199;-33
2023/08/15 14:21:10;;;;;;;3.83;3.30;;;;;;;;;;6153719;23;20183;-30
2023/08/15 14:23:40;;;;;;;3.80;3.38;;;;;;;;;;6151974;23;20259;-30
2023/08/15 14:26:08;;;;;;;7.15;3.53;;;;;;;;;;6153806;23;20183;-33
2023/08/15 14:28:35;;;;;;;3.78;3.33;;;;;;;;;;6154157;23;20202;-28
2023/08/15 14:31:04;;;;;;;5.03;3.53;;;;;;;;;;6152286;23;20190;-31
2023/08/15 14:33:33;;;;;;;5.80;3.45;;;;;;;;;;6153929;23;20175;-28
2023/08/15 14:36:00;;;;;;;4.15;3.47;;;;;;;;;;6156792;23;20211;-26
2023/08/15 14:38:27;;;;;;;5.72;3.38;;;;;;;;;;6154672;23;20488;-33
2023/08/15 14:40:54;;;;;;;4.85;3.78;;;;;;;;;;6154562;23;20266;-30
2023/08/15 14:43:21;;;;;;;6.10;3.40;;;;;;;;;;6151143;23;20521;-29
2023/08/15 14:45:49;;;;;;;3.30;2.80;;;;;;;;;;6153430;23;20270;-29
2023/08/15 14:48:16;;;;;;;4.65;3.40;;;;;;;;;;6153373;23;20190;-28
2023/08/15 14:50:46;;;;;;;3.53;3.00;;;;;;;;;;6151607;23;20709;-30
2023/08/15 14:53:13;;;;;;;7.15;3.15;;;;;;;;;;6153678;23;20159;-28
2023/08/15 14:55:40;;;;;;;5.63;3.33;;;;;;;;;;6153683;23;20514;-26
2023/08/15 14:58:07;;;;;;;4.97;2.92;;;;;;;;;;6151664;23;20214;-31
2023/08/15 15:00:34;;;;;;;5.03;2.67;;;;;;;;;;6148550;23;20303;-31
2023/08/15 15:03:02;;;;;;;9.57;3.20;;;;;;;;;;6148884;23;20287;-29
2023/08/15 15:05:29;;;;;;;3.42;3.03;;;;;;;;;;6152775;23;20617;-27
2023/08/15 15:07:57;;;;;;;3.20;3.00;;;;;;;;;;6152962;23;20192;-25
2023/08/15 15:10:25;;;;;;;4.63;3.22;;;;;;;;;;6153306;23;20259;-31
2023/08/15 15:12:52;;;;;;;5.47;3.42;;;;;;;;;;6149850;23;20422;-29
2023/08/15 15:15:19;;;;;;;4.45;3.60;;;;;;;;;;6152711;23;20262;-29
2023/08/15 15:17:46;;;;;;;4.93;3.40;;;;;;;;;;6151573;23;20183;-28
2023/08/15 15:20:13;;;;;;;5.15;3.45;;;;;;;;;;6152450;23;20238;-29
2023/08/15 15:22:40;;;;;;;3.95;3.55;;;;;;;;;;6151147;23;20215;-27
2023/08/15 15:25:09;;;;;;;4.38;3.60;;;;;;;;;;6152201;23;20261;-31
2023/08/15 15:27:36;;;;;;;5.18;3.45;;;;;;;;;;6149761;23;20254;-28
2023/08/15 15:30:04;;;;;;;3.95;3.55;;;;;;;;;;6150440;23;20286;-27
2023/08/15 15:32:31;;;;;;;3.63;3.33;;;;;;;;;;6153749;23;20183;-29
2023/08/15 15:34:58;;;;;;;6.75;4.05;;;;;;;;;;6153964;23;20214;-26
2023/08/15 15:37:25;;;;;;;4.97;3.30;;;;;;;;;;6151857;23;20242;-29
2023/08/15 15:39:53;;;;;;;8.93;3.40;;;;;;;;;;6153327;23;20227;-29
2023/08/15 15:42:22;;;;;;;4.65;3.63;;;;;;;;;;6152700;23;20179;-26
2023/08/15 15:44:49;;;;;;;5.90;3.30;;;;;;;;;;6147805;23;20581;-30
2023/08/15 15:47:16;;;;;;;5.93;3.60;;;;;;;;;;6149997;23;20186;-28
2023/08/15 15:49:44;;;;;;;7.10;3.47;;;;;;;;;;6152257;23;20285;-30
2023/08/15 15:52:11;;;;;;;6.15;3.17;;;;;;;;;;6152913;23;20183;-29
2023/08/15 15:54:38;;;;;;;5.43;3.38;;;;;;;;;;6151185;23;20179;-33
2023/08/15 15:57:06;;;;;;;3.90;2.90;;;;;;;;;;6150112;23;20186;-33
2023/08/15 15:59:35;;;;;;;4.78;3.03;;;;;;;;;;6148831;23;20211;-25
2023/08/15 16:02:02;;;;;;;5.05;3.55;;;;;;;;;;6152952;23;20174;-31
2023/08/15 16:04:30;;;;;;;4.35;3.10;;;;;;;;;;6153445;23;20195;-27
2023/08/15 16:06:57;;;;;;;3.90;3.20;;;;;;;;;;6150699;23;20238;-27
2023/08/15 16:09:44;;;;;;;4.85;3.10;;;;;;;;;;6152831;23;20262;-31
2023/08/15 16:12:11;;;;;;;4.25;3.03;;;;;;;;;;6155082;23;20194;-29
2023/08/15 16:14:40;;;;;;;6.68;2.90;;;;;;;;;;6153537;23;20179;-30
2023/08/15 16:17:07;;;;;;;6.95;3.67;;;;;;;;;;6152065;23;20168;-32
2023/08/15 16:19:34;;;;;;;3.67;3.33;;;;;;;;;;6152403;23;20203;-30
2023/08/15 16:22:01;;;;;;;4.50;3.28;;;;;;;;;;6152448;23;20262;-28
2023/08/15 16:24:29;;;;;;;3.30;3.00;;;;;;;;;;6152236;23;20203;-28
2023/08/15 16:26:57;;;;;;;7.45;3.38;;;;;;;;;;6152536;23;20242;-28
2023/08/15 16:29:25;;;;;;;5.85;3.15;;;;;;;;;;6151289;23;20606;-31
2023/08/15 16:31:56;;;;;;;3.10;2.90;;;;;;;;;;6153150;23;20177;-28
2023/08/15 16:34:24;;;;;;;6.78;3.35;;;;;;;;;;6152830;23;20195;-31
2023/08/15 16:37:07;;;;;;;3.90;3.38;;;;;;;;;;6151584;23;20167;-32
2023/08/15 16:39:34;;;;;;;4.18;3.13;;;;;;;;;;6154221;23;20281;-31
2023/08/15 16:42:01;;;;;;;3.10;2.80;;;;;;;;;;6152794;23;20666;-28
2023/08/15 16:44:28;;;;;;;2.95;2.75;;;;;;;;;;6151092;23;20195;-31
2023/08/15 16:46:57;;;;;;;6.03;3.00;;;;;;;;;;6151599;23;20720;-28
2023/08/15 16:49:24;;;;;;;2.67;2.40;;;;;;;;;;6152179;23;20666;-31
2023/08/15 16:51:52;;;;;;;2.83;2.60;;;;;;;;;;6151431;23;20179;-27
2023/08/15 16:54:19;;;;;;;3.53;2.50;;;;;;;;;;6151895;23;20175;-31
2023/08/15 16:56:46;;;;;;;10.18;2.88;;;;;;;;;;6153104;23;20183;-28
2023/08/15 16:59:24;;;;;;;10.75;9.07;;;;;;;;;;6147566;23;20218;-28
2023/08/15 17:01:51;;;;;;;2.50;2.30;;;;;;;;;;6150276;23;20242;-32
2023/08/15 17:04:20;;;;;;;3.03;2.42;;;;;;;;;;6148990;23;20607;-34
2023/08/15 17:06:47;;;;;;;7.80;6.13;;;;;;;;;;6146362;23;20588;-31
2023/08/15 17:09:14;;;;;;;4.80;2.50;;;;;;;;;;6147409;23;20282;-29
2023/08/15 17:11:42;;;;;;;4.70;3.13;;;;;;;;;;6146857;23;20242;-33
2023/08/15 17:14:09;;;;;;;10.23;3.13;;;;;;;;;;6147739;23;20274;-31
2023/08/15 17:16:36;;;;;;;3.92;2.60;;;;;;;;;;6149515;23;20187;-29
2023/08/15 17:19:04;;;;;;;5.28;2.90;;;;;;;;;;6148530;23;20530;-26
2023/08/15 17:21:32;;;;;;;3.10;2.80;;;;;;;;;;6149060;23;20179;-28
2023/08/15 17:23:59;;;;;;;9.05;5.13;;;;;;;;;;6147525;23;20210;-31
2023/08/15 17:26:27;;;;;;;7.05;5.90;;;;;;;;;;6149468;23;20270;-31
2023/08/15 17:28:55;;;;;;;35.58;31.85;;;;;;;;;;6147114;23;20230;-29
2023/08/15 17:31:22;;;;;;;92.53;80.32;;;;;;;;;;6148024;23;20207;-30
2023/08/15 17:33:49;;;;;;;12.10;10.05;;;;;;;;;;6147598;23;20187;-28
2023/08/15 17:36:17;;;;;;;5.70;5.10;;;;;;;;;;6148422;23;20197;-28
2023/08/15 17:38:45;;;;;;;28.20;20.17;;;;;;;;;;6146523;23;20199;-29
2023/08/15 17:41:12;;;;;;;298.17;187.70;;;;;;;;;;6148717;23;20270;-33
2023/08/15 17:43:39;;;;;;;2.80;2.60;;;;;;;;;;6147935;23;20164;-30
2023/08/15 17:46:07;;;;;;;5.07;4.28;;;;;;;;;;6146499;23;20594;-31
2023/08/15 17:48:34;;;;;;;33.80;24.35;;;;;;;;;;6147883;23;20298;-32
2023/08/15 17:51:01;;;;;;;4.05;2.50;;;;;;;;;;6148964;23;20211;-29
2023/08/15 17:53:28;;;;;;;2.95;2.40;;;;;;;;;;6146505;23;20186;-29
2023/08/15 17:55:58;;;;;;;2.97;2.63;;;;;;;;;;6148698;23;20214;-31
2023/08/15 17:58:26;;;;;;;2.53;2.25;;;;;;;;;;6146417;23;20187;-32
2023/08/15 18:00:53;;;;;;;3.35;2.15;;;;;;;;;;6149217;23;20209;-31
2023/08/15 18:03:20;;;;;;;4.30;3.13;;;;;;;;;;6149462;23;20266;-31
2023/08/15 18:05:47;;;;;;;3.55;2.22;;;;;;;;;;6147443;23;20285;-34
2023/08/15 18:08:14;;;;;;;2.92;2.63;;;;;;;;;;6148715;23;20189;-32
2023/08/15 18:10:42;;;;;;;2.40;2.05;;;;;;;;;;6148635;23;20521;-30
2023/08/15 18:13:10;;;;;;;2.35;2.15;;;;;;;;;;6146387;23;20562;-33
2023/08/15 18:15:41;;;;;;;5.63;2.40;;;;;;;;;;6149661;23;20177;-30
2023/08/15 18:18:09;;;;;;;2.95;1.95;;;;;;;;;;6148150;23;20175;-30
2023/08/15 18:20:38;;;;;;;4.65;2.42;;;;;;;;;;6147835;23;20210;-28
2023/08/15 18:23:05;;;;;;;5.40;2.70;;;;;;;;;;6148192;23;20197;-31
2023/08/15 18:25:38;;;;;;;3.22;2.35;;;;;;;;;;6145371;23;20295;-30
2023/08/15 18:28:08;;;;;;;5.28;2.58;;;;;;;;;;6146530;23;20164;-30
2023/08/15 18:30:39;;;;;;;3.40;2.45;;;;;;;;;;6149667;23;20207;-30
2023/08/15 18:33:14;;;;;;;4.43;4.03;;;;;;;;;;6148903;23;20170;-32
2023/08/15 18:38:29;;;;;;;4.68;3.85;;;;;;;;;;6145716;23;20517;-32
2023/08/15 18:40:57;;;;;;;2.90;2.60;;;;;;;;;;6149261;23;20243;-29
2023/08/15 18:43:26;;;;;;;2.92;2.47;;;;;;;;;;6148385;23;20248;-29
2023/08/15 18:45:58;;;;;;;2.50;2.30;;;;;;;;;;6152400;23;20265;-29
2023/08/15 18:51:32;;;;;;;2.72;2.47;;;;;;;;;;6147773;23;20185;-32
2023/08/15 18:57:20;;;;;;;5.47;3.97;;;;;;;;;;6028547;23;20189;-31
2023/08/15 19:00:10;;;;;;;4.72;3.05;;;;;;;;;;6058694;23;20286;-32
2023/08/15 19:03:14;;;;;;;4.25;3.85;;;;;;;;;;6071783;23;20483;-28
2023/08/15 19:06:01;;;;;;;4.05;2.30;;;;;;;;;;6023875;23;20484;-34
2023/08/15 19:08:36;;;;;;;2.83;2.00;;;;;;;;;;6115939;23;20507;-33
2023/08/15 19:11:15;;;;;;;3.90;2.00;;;;;;;;;;6118541;23;20169;-31
2023/08/15 19:13:58;;;;;;;6.63;2.38;;;;;;;;;;6117277;23;20339;-33
2023/08/15 19:16:54;;;;;;;3.05;2.45;;;;;;;;;;6118560;23;20167;-30
2023/08/15 19:19:32;;;;;;;2.40;2.20;;;;;;;;;;6113273;23;20230;-35
2023/08/15 19:56:14;;;;;;;4.05;2.30;;;;;;;;;;5999881;23;20180;-29
2023/08/15 20:17:57;;;;;;;;;;;;;;;;;;;;;
2023/08/15 20:39:40;;;;;;;3.92;2.10;;;;;;;;;;5973888;23;20596;-34
2023/08/15 20:51:16;;;;;;;2.65;2.22;;;;;;;;;;6059238;23;20196;-33
2023/08/15 20:53:50;;;;;;;2.45;2.25;;;;;;;;;;6145787;23;20571;-35
2023/08/15 20:56:26;;;;;;;3.10;2.25;;;;;;;;;;6144960;23;20687;-33
2023/08/15 20:58:55;;;;;;;5.28;2.25;;;;;;;;;;6144932;23;20214;-31
2023/08/15 21:09:56;;;;;;;2.45;2.25;;;;;;;;;;6147130;23;20208;-31
2023/08/15 21:12:56;;;;;;;2.42;2.20;;;;;;;;;;6142125;23;20566;-33
2023/08/15 21:15:37;;;;;;;3.97;2.00;;;;;;;;;;6144660;23;20206;-30
2023/08/15 21:18:31;;;;;;;;;;;;;;;;;;;;;
2023/08/15 21:23:58;;;;;;;2.85;2.28;;;;;;;;;;6133262;23;20181;-31
2023/08/15 21:26:43;;;;;;;4.88;1.83;;;;;;;;;;6147917;23;20188;-33
2023/08/15 21:32:27;;;;;;;5.93;2.17;;;;;;;;;;6123170;23;20183;-32